Time;durP1;ratioP1;P1;durP2;ratioP2;P2;SDS_P1;SDS_P2;PMS_P1;PMS_P2;Temp;Humidity;BMP_temperature;BMP_pressure;BME280_temperature;BME280_humidity;BME280_pressure;Samples;Min_cycle;Max_cycle;Signal;HPM_P1;HPM_P2
2023/12/04 00:00:50;;;;;;;50.57;42.73;;;;;;;;;;5030875;28;21172;-39
2023/12/04 00:03:17;;;;;;;46.03;41.03;;;;;;;;;;5030889;28;20456;-41
2023/12/04 00:05:46;;;;;;;48.90;40.80;;;;;;;;;;5031455;28;20444;-40
2023/12/04 00:08:14;;;;;;;45.80;40.53;;;;;;;;;;5031098;28;20436;-41
2023/12/04 00:10:41;;;;;;;59.30;44.43;;;;;;;;;;5030590;28;20491;-40
2023/12/04 00:13:09;;;;;;;49.73;42.20;;;;;;;;;;5030914;28;20483;-40
2023/12/04 00:15:36;;;;;;;50.83;42.23;;;;;;;;;;5031204;28;20877;-41
2023/12/04 00:18:04;;;;;;;50.23;42.30;;;;;;;;;;5031265;28;20479;-38
2023/12/04 00:20:32;;;;;;;50.23;42.30;;;;;;;;;;5030287;28;20800;-38
2023/12/04 00:23:00;;;;;;;55.23;46.00;;;;;;;;;;5030724;28;20462;-39
2023/12/04 00:25:28;;;;;;;55.13;43.13;;;;;;;;;;5031128;28;20472;-39
2023/12/04 00:27:56;;;;;;;50.37;41.47;;;;;;;;;;5030987;28;20451;-42
2023/12/04 00:30:23;;;;;;;47.93;42.13;;;;;;;;;;5030204;28;20476;-41
2023/12/04 00:32:51;;;;;;;49.00;42.10;;;;;;;;;;5030402;28;20552;-39
2023/12/04 00:35:18;;;;;;;60.00;44.90;;;;;;;;;;5032501;28;20476;-39
2023/12/04 00:37:46;;;;;;;57.63;45.03;;;;;;;;;;5034354;28;20939;-39
2023/12/04 00:40:15;;;;;;;52.60;45.03;;;;;;;;;;5033517;28;21069;-39
2023/12/04 00:42:43;;;;;;;54.33;42.27;;;;;;;;;;5034167;28;20491;-39
2023/12/04 00:45:10;;;;;;;54.90;43.60;;;;;;;;;;5057433;23;20549;-38
2023/12/04 00:47:38;;;;;;;49.77;44.20;;;;;;;;;;5033111;28;20448;-38
2023/12/04 00:50:06;;;;;;;60.73;47.67;;;;;;;;;;5032805;28;20484;-39
2023/12/04 00:52:34;;;;;;;58.97;44.67;;;;;;;;;;5035848;28;20447;-39
2023/12/04 00:55:01;;;;;;;51.17;45.43;;;;;;;;;;5043329;28;20503;-37
2023/12/04 00:57:30;;;;;;;48.83;43.57;;;;;;;;;;5033573;28;20527;-38
2023/12/04 00:59:58;;;;;;;65.70;46.33;;;;;;;;;;5032396;28;20462;-39
2023/12/04 01:02:25;;;;;;;58.10;45.13;;;;;;;;;;5032282;28;20530;-39
2023/12/04 01:04:53;;;;;;;53.80;46.83;;;;;;;;;;5032144;28;20863;-39
2023/12/04 01:07:20;;;;;;;55.97;46.60;;;;;;;;;;5032325;28;20472;-38
2023/12/04 01:09:48;;;;;;;58.70;45.03;;;;;;;;;;5032128;28;20460;-38
2023/12/04 01:12:16;;;;;;;58.53;45.20;;;;;;;;;;5032488;28;20923;-38
2023/12/04 01:14:44;;;;;;;59.83;44.93;;;;;;;;;;5032243;28;20460;-38
2023/12/04 01:17:12;;;;;;;54.10;44.93;;;;;;;;;;5040352;28;20436;-39
2023/12/04 01:19:40;;;;;;;52.00;44.33;;;;;;;;;;5032281;28;20527;-38
2023/12/04 01:22:08;;;;;;;56.07;46.37;;;;;;;;;;5032268;28;20432;-39
2023/12/04 01:24:35;;;;;;;58.37;43.80;;;;;;;;;;5031978;28;20439;-38
2023/12/04 01:27:03;;;;;;;60.40;46.23;;;;;;;;;;5030823;28;20440;-40
2023/12/04 01:29:31;;;;;;;51.43;42.83;;;;;;;;;;5031507;28;20448;-38
2023/12/04 01:32:00;;;;;;;57.87;44.50;;;;;;;;;;5031660;28;20440;-38
2023/12/04 01:34:28;;;;;;;61.93;48.27;;;;;;;;;;5039381;28;20893;-38
2023/12/04 01:36:55;;;;;;;61.17;45.10;;;;;;;;;;5031175;28;20479;-39
2023/12/04 01:39:23;;;;;;;58.13;45.87;;;;;;;;;;5031654;28;20945;-39
2023/12/04 01:41:51;;;;;;;59.47;44.60;;;;;;;;;;5021061;28;20484;-38
2023/12/04 01:44:21;;;;;;;59.37;46.00;;;;;;;;;;5031065;28;20435;-41
2023/12/04 01:46:48;;;;;;;61.50;48.90;;;;;;;;;;5031675;28;20494;-40
2023/12/04 01:49:18;;;;;;;54.47;46.27;;;;;;;;;;5032630;28;20498;-38
2023/12/04 01:51:46;;;;;;;63.90;48.50;;;;;;;;;;5022927;28;20499;-41
2023/12/04 01:54:15;;;;;;;56.13;46.50;;;;;;;;;;5031603;28;20502;-40
2023/12/04 01:56:43;;;;;;;62.77;46.97;;;;;;;;;;5023233;28;20931;-41
2023/12/04 01:59:11;;;;;;;55.87;45.40;;;;;;;;;;5039334;28;20957;-41
2023/12/04 02:01:39;;;;;;;57.77;45.70;;;;;;;;;;5040103;28;20464;-38
2023/12/04 02:04:07;;;;;;;55.50;45.10;;;;;;;;;;5031865;28;20823;-41
2023/12/04 02:06:36;;;;;;;56.30;44.20;;;;;;;;;;5031084;28;20460;-44
2023/12/04 02:09:06;;;;;;;47.47;42.40;;;;;;;;;;5031886;28;20966;-40
2023/12/04 02:11:34;;;;;;;54.50;45.47;;;;;;;;;;5030942;28;20464;-42
2023/12/04 02:14:02;;;;;;;51.77;43.37;;;;;;;;;;5031820;28;20433;-38
2023/12/04 02:16:30;;;;;;;55.10;45.13;;;;;;;;;;5031943;28;20563;-42
2023/12/04 02:18:59;;;;;;;65.60;46.67;;;;;;;;;;5037061;28;21009;-38
2023/12/04 02:21:26;;;;;;;70.13;45.90;;;;;;;;;;5030028;28;20526;-38
2023/12/04 02:23:55;;;;;;;57.77;46.90;;;;;;;;;;5030641;28;20440;-41
2023/12/04 02:26:24;;;;;;;49.30;42.23;;;;;;;;;;5038357;28;20463;-40
2023/12/04 02:28:55;;;;;;;57.27;46.37;;;;;;;;;;5030771;28;20470;-41
2023/12/04 02:31:24;;;;;;;49.10;42.53;;;;;;;;;;5038016;28;20773;-40
2023/12/04 02:33:53;;;;;;;62.07;44.47;;;;;;;;;;5037889;28;20808;-38
2023/12/04 02:36:21;;;;;;;58.20;46.93;;;;;;;;;;5030314;28;20480;-38
2023/12/04 02:38:49;;;;;;;66.13;46.20;;;;;;;;;;5030258;28;20478;-42
2023/12/04 02:41:18;;;;;;;58.93;43.53;;;;;;;;;;5030554;28;20492;-39
2023/12/04 02:43:45;;;;;;;52.90;44.23;;;;;;;;;;5030434;28;20443;-41
2023/12/04 02:46:13;;;;;;;50.17;43.20;;;;;;;;;;5029786;28;20862;-41
2023/12/04 02:48:41;;;;;;;51.33;43.00;;;;;;;;;;5032889;28;20448;-39
2023/12/04 02:51:09;;;;;;;49.97;41.40;;;;;;;;;;5034842;28;20464;-38
2023/12/04 02:53:36;;;;;;;56.53;43.77;;;;;;;;;;5030246;28;20437;-39
2023/12/04 02:56:05;;;;;;;55.83;45.30;;;;;;;;;;5030193;28;20833;-40
2023/12/04 02:58:34;;;;;;;55.13;43.20;;;;;;;;;;5029978;28;20447;-38
2023/12/04 03:01:02;;;;;;;49.30;42.37;;;;;;;;;;5030089;28;20822;-38
2023/12/04 03:03:30;;;;;;;48.10;42.40;;;;;;;;;;5029908;28;20992;-39
2023/12/04 03:05:57;;;;;;;52.53;44.37;;;;;;;;;;5029932;28;20467;-38
2023/12/04 03:08:25;;;;;;;50.53;41.93;;;;;;;;;;5029990;28;20436;-42
2023/12/04 03:10:53;;;;;;;46.37;40.77;;;;;;;;;;5029274;28;20468;-39
2023/12/04 03:13:20;;;;;;;49.93;40.43;;;;;;;;;;5030144;28;20439;-38
2023/12/04 03:15:49;;;;;;;49.17;41.77;;;;;;;;;;5029786;28;20471;-40
2023/12/04 03:18:17;;;;;;;53.63;42.70;;;;;;;;;;5030488;28;20436;-39
2023/12/04 03:20:45;;;;;;;50.97;41.93;;;;;;;;;;5034508;28;20472;-38
2023/12/04 03:23:12;;;;;;;45.97;39.93;;;;;;;;;;5029841;28;20938;-38
2023/12/04 03:25:40;;;;;;;46.00;40.97;;;;;;;;;;5029702;28;20456;-43
2023/12/04 03:28:07;;;;;;;53.53;41.87;;;;;;;;;;5038302;28;20468;-38
2023/12/04 03:30:35;;;;;;;46.97;40.30;;;;;;;;;;5029729;28;20547;-41
2023/12/04 03:33:04;;;;;;;53.23;43.93;;;;;;;;;;5029597;28;20444;-38
2023/12/04 03:35:32;;;;;;;51.73;41.57;;;;;;;;;;5029588;28;20464;-41
2023/12/04 03:37:59;;;;;;;44.90;40.30;;;;;;;;;;5029709;28;20471;-41
2023/12/04 03:40:27;;;;;;;47.50;41.63;;;;;;;;;;5037339;28;20487;-41
2023/12/04 03:42:54;;;;;;;48.07;41.20;;;;;;;;;;5029734;28;20436;-40
2023/12/04 03:45:22;;;;;;;46.33;41.30;;;;;;;;;;5029294;28;20464;-38
2023/12/04 03:47:50;;;;;;;47.63;40.67;;;;;;;;;;5021938;28;20436;-42
2023/12/04 03:50:19;;;;;;;44.83;40.13;;;;;;;;;;5029440;28;20548;-41
2023/12/04 03:52:47;;;;;;;46.73;38.87;;;;;;;;;;5029402;28;20827;-38
2023/12/04 03:55:15;;;;;;;49.63;40.37;;;;;;;;;;5029801;28;20487;-38
2023/12/04 03:57:43;;;;;;;50.60;41.63;;;;;;;;;;5029568;28;21247;-41
2023/12/04 04:00:11;;;;;;;48.90;40.53;;;;;;;;;;5028811;28;20492;-40
2023/12/04 04:02:40;;;;;;;51.17;42.17;;;;;;;;;;5029624;28;20781;-39
2023/12/04 04:05:07;;;;;;;43.70;39.10;;;;;;;;;;5029292;28;20477;-41
2023/12/04 04:07:36;;;;;;;45.97;41.07;;;;;;;;;;5030884;28;20436;-41
2023/12/04 04:10:05;;;;;;;43.17;38.50;;;;;;;;;;5043009;28;20458;-40
2023/12/04 04:12:32;;;;;;;45.50;40.60;;;;;;;;;;5045671;28;20440;-42
2023/12/04 04:15:00;;;;;;;47.70;40.10;;;;;;;;;;5053137;28;20458;-41
2023/12/04 04:17:28;;;;;;;45.60;40.90;;;;;;;;;;5045054;28;20476;-41
2023/12/04 04:19:55;;;;;;;45.10;40.30;;;;;;;;;;5051175;28;20447;-40
2023/12/04 04:22:23;;;;;;;47.73;41.47;;;;;;;;;;5033607;28;20478;-39
2023/12/04 04:24:52;;;;;;;45.67;40.37;;;;;;;;;;5053145;28;20527;-39
2023/12/04 04:27:21;;;;;;;43.83;39.30;;;;;;;;;;5053267;28;20443;-38
2023/12/04 04:29:49;;;;;;;47.17;41.30;;;;;;;;;;5036772;28;21003;-38
2023/12/04 04:32:16;;;;;;;44.83;39.23;;;;;;;;;;5038084;28;20527;-42
2023/12/04 04:34:44;;;;;;;46.90;39.70;;;;;;;;;;5048519;28;20455;-39
2023/12/04 04:37:12;;;;;;;50.43;39.90;;;;;;;;;;5047018;28;20528;-40
2023/12/04 04:39:40;;;;;;;43.87;39.23;;;;;;;;;;5052379;28;20520;-39
2023/12/04 04:42:09;;;;;;;42.97;38.00;;;;;;;;;;5053008;28;20489;-39
2023/12/04 04:44:37;;;;;;;45.97;39.40;;;;;;;;;;5052039;28;20436;-39
2023/12/04 04:47:04;;;;;;;45.93;41.03;;;;;;;;;;5046771;28;20429;-38
2023/12/04 04:49:32;;;;;;;43.60;38.77;;;;;;;;;;5047792;28;20446;-39
2023/12/04 04:52:00;;;;;;;49.07;40.50;;;;;;;;;;5044149;28;20446;-39
2023/12/04 04:54:27;;;;;;;44.63;39.90;;;;;;;;;;5043803;28;20492;-38
2023/12/04 04:56:55;;;;;;;41.27;37.00;;;;;;;;;;5040431;28;20526;-41
2023/12/04 04:59:25;;;;;;;45.43;38.60;;;;;;;;;;5032582;28;20957;-37
2023/12/04 05:01:53;;;;;;;43.20;38.53;;;;;;;;;;5020546;28;20456;-38
2023/12/04 05:04:21;;;;;;;47.33;40.87;;;;;;;;;;5040435;28;20810;-41
2023/12/04 05:06:48;;;;;;;53.80;41.00;;;;;;;;;;5041359;28;20490;-39
2023/12/04 05:09:16;;;;;;;45.43;40.17;;;;;;;;;;5032509;28;20792;-39
2023/12/04 05:11:44;;;;;;;44.10;39.33;;;;;;;;;;5039601;28;20459;-38
2023/12/04 05:14:11;;;;;;;45.90;41.00;;;;;;;;;;5040033;28;20519;-39
2023/12/04 05:16:40;;;;;;;45.30;40.60;;;;;;;;;;5039407;28;20487;-39
2023/12/04 05:19:08;;;;;;;45.67;40.80;;;;;;;;;;5032437;28;20455;-38
2023/12/04 05:21:36;;;;;;;43.97;39.27;;;;;;;;;;5032886;28;20463;-41
2023/12/04 05:24:04;;;;;;;42.17;37.83;;;;;;;;;;5032131;28;20432;-40
2023/12/04 05:26:32;;;;;;;45.77;39.17;;;;;;;;;;5031955;28;20514;-41
2023/12/04 05:28:59;;;;;;;45.03;39.73;;;;;;;;;;5036027;28;20865;-42
2023/12/04 05:31:27;;;;;;;48.30;41.27;;;;;;;;;;5043326;28;20566;-40
2023/12/04 05:33:57;;;;;;;43.80;39.13;;;;;;;;;;5030571;28;20525;-38
2023/12/04 05:36:26;;;;;;;45.30;38.57;;;;;;;;;;5039630;28;20814;-39
2023/12/04 05:38:54;;;;;;;44.17;39.50;;;;;;;;;;5031189;28;20491;-39
2023/12/04 05:41:25;;;;;;;47.47;40.93;;;;;;;;;;5030537;28;20882;-39
2023/12/04 05:43:53;;;;;;;49.80;38.67;;;;;;;;;;5030896;28;20424;-40
2023/12/04 05:46:21;;;;;;;43.93;38.37;;;;;;;;;;5030960;28;20460;-41
2023/12/04 05:48:48;;;;;;;45.47;40.63;;;;;;;;;;5039368;28;20432;-40
2023/12/04 05:51:18;;;;;;;45.87;38.17;;;;;;;;;;5030663;28;20994;-44
2023/12/04 05:53:45;;;;;;;47.00;37.57;;;;;;;;;;5033002;28;20443;-39
2023/12/04 05:56:13;;;;;;;40.93;35.23;;;;;;;;;;5037609;28;20492;-39
2023/12/04 05:58:41;;;;;;;44.73;39.90;;;;;;;;;;5031212;28;21019;-41
2023/12/04 06:01:08;;;;;;;43.30;37.90;;;;;;;;;;5039582;28;20517;-39
2023/12/04 06:03:37;;;;;;;45.57;36.57;;;;;;;;;;5030928;28;20852;-39
2023/12/04 06:06:05;;;;;;;43.00;38.60;;;;;;;;;;5030634;28;20954;-38
2023/12/04 06:08:35;;;;;;;43.80;39.30;;;;;;;;;;5038715;28;20855;-38
2023/12/04 06:11:03;;;;;;;40.20;36.63;;;;;;;;;;5029655;28;20579;-38
2023/12/04 06:13:31;;;;;;;42.87;38.37;;;;;;;;;;5047807;28;20440;-39
2023/12/04 06:16:00;;;;;;;42.37;36.90;;;;;;;;;;5050519;28;20485;-39
2023/12/04 06:18:28;;;;;;;41.33;37.27;;;;;;;;;;5043860;28;20476;-38
2023/12/04 06:20:56;;;;;;;43.63;38.77;;;;;;;;;;5030979;28;20823;-38
2023/12/04 06:23:24;;;;;;;41.47;36.97;;;;;;;;;;5029467;28;20921;-38
2023/12/04 06:25:53;;;;;;;39.43;35.57;;;;;;;;;;5029676;28;20678;-38
2023/12/04 06:28:21;;;;;;;40.90;36.80;;;;;;;;;;5029954;28;20916;-41
2023/12/04 06:30:49;;;;;;;43.13;38.43;;;;;;;;;;5040744;28;20463;-39
2023/12/04 06:33:18;;;;;;;43.40;38.80;;;;;;;;;;5050137;28;20446;-44
2023/12/04 06:35:46;;;;;;;41.67;37.57;;;;;;;;;;5042550;28;21037;-39
2023/12/04 06:38:15;;;;;;;47.10;38.40;;;;;;;;;;5050832;28;20482;-39
2023/12/04 06:40:43;;;;;;;41.57;37.30;;;;;;;;;;5049542;28;20554;-40
2023/12/04 06:43:13;;;;;;;40.73;36.60;;;;;;;;;;5038976;28;20433;-39
2023/12/04 06:45:41;;;;;;;39.80;35.67;;;;;;;;;;5030596;28;20464;-42
2023/12/04 06:48:10;;;;;;;41.77;37.20;;;;;;;;;;5034631;28;20519;-42
2023/12/04 06:50:38;;;;;;;41.93;36.87;;;;;;;;;;5032531;28;20464;-39
2023/12/04 06:53:06;;;;;;;40.53;36.80;;;;;;;;;;5029859;28;20520;-38
2023/12/04 06:55:33;;;;;;;39.00;35.50;;;;;;;;;;5029907;28;20452;-39
2023/12/04 06:58:01;;;;;;;44.40;37.73;;;;;;;;;;5030216;28;20578;-39
2023/12/04 07:00:31;;;;;;;41.33;37.23;;;;;;;;;;5037061;28;20510;-41
2023/12/04 07:02:59;;;;;;;38.33;34.43;;;;;;;;;;5030394;28;20456;-39
2023/12/04 07:05:27;;;;;;;40.50;36.33;;;;;;;;;;5030236;28;20457;-39
2023/12/04 07:07:55;;;;;;;39.80;35.77;;;;;;;;;;5032027;28;20464;-39
2023/12/04 07:10:24;;;;;;;39.10;35.40;;;;;;;;;;5048707;28;20467;-39
2023/12/04 07:12:56;;;;;;;38.23;34.60;;;;;;;;;;5032127;28;20495;-39
2023/12/04 07:15:25;;;;;;;39.37;35.60;;;;;;;;;;5031166;28;20559;-39
2023/12/04 07:18:09;;;;;;;40.90;36.80;;;;;;;;;;5029045;28;20502;-37
2023/12/04 07:20:36;;;;;;;38.93;35.27;;;;;;;;;;5029751;28;20862;-38
2023/12/04 07:23:05;;;;;;;37.47;34.13;;;;;;;;;;5030542;28;20831;-40
2023/12/04 07:25:36;;;;;;;40.57;36.37;;;;;;;;;;5031078;28;20513;-36
2023/12/04 07:28:19;;;;;;;37.33;33.83;;;;;;;;;;5036744;28;20444;-39
2023/12/04 07:30:47;;;;;;;38.60;34.33;;;;;;;;;;5031964;28;20464;-39
2023/12/04 07:33:17;;;;;;;37.67;34.07;;;;;;;;;;5037061;28;20446;-39
2023/12/04 07:35:45;;;;;;;38.00;34.20;;;;;;;;;;5031102;28;20463;-39
2023/12/04 07:38:12;;;;;;;36.97;33.63;;;;;;;;;;5042634;28;20457;-40
2023/12/04 07:40:40;;;;;;;37.60;33.67;;;;;;;;;;5033645;28;20468;-39
2023/12/04 07:43:08;;;;;;;34.23;31.03;;;;;;;;;;5035120;28;20490;-40
2023/12/04 07:45:36;;;;;;;36.73;33.47;;;;;;;;;;5038541;28;20468;-40
2023/12/04 07:48:04;;;;;;;36.93;33.33;;;;;;;;;;5036736;28;20439;-40
2023/12/04 07:50:34;;;;;;;36.40;32.60;;;;;;;;;;5044347;28;20494;-40
2023/12/04 07:53:01;;;;;;;35.70;32.70;;;;;;;;;;5042585;28;20467;-39
2023/12/04 07:55:29;;;;;;;37.17;33.70;;;;;;;;;;5041958;28;20998;-39
2023/12/04 07:57:57;;;;;;;36.93;33.73;;;;;;;;;;5044040;28;20471;-40
2023/12/04 08:00:26;;;;;;;35.70;32.60;;;;;;;;;;5053827;28;20516;-40
2023/12/04 08:02:53;;;;;;;35.43;32.57;;;;;;;;;;5045311;28;20431;-39
2023/12/04 08:05:21;;;;;;;35.27;32.30;;;;;;;;;;5054144;28;20465;-39
2023/12/04 08:07:50;;;;;;;36.13;32.87;;;;;;;;;;5045328;28;20442;-45
2023/12/04 08:10:18;;;;;;;36.03;32.70;;;;;;;;;;5045657;28;20465;-40
2023/12/04 08:12:46;;;;;;;34.57;31.70;;;;;;;;;;5053794;28;20435;-39
2023/12/04 08:15:14;;;;;;;35.67;32.70;;;;;;;;;;5053239;28;20469;-39
2023/12/04 08:17:42;;;;;;;34.43;31.13;;;;;;;;;;5037192;28;20850;-40
2023/12/04 08:20:13;;;;;;;33.87;30.97;;;;;;;;;;5033648;28;20467;-42
2023/12/04 08:22:52;;;;;;;33.97;30.63;;;;;;;;;;5042058;28;20526;-39
2023/12/04 08:25:20;;;;;;;34.80;31.67;;;;;;;;;;5046348;28;20509;-40
2023/12/04 08:27:47;;;;;;;33.70;30.47;;;;;;;;;;5052386;28;20516;-43
2023/12/04 08:30:17;;;;;;;35.07;32.23;;;;;;;;;;5038060;28;20459;-40
2023/12/04 08:32:44;;;;;;;35.83;32.17;;;;;;;;;;5045049;28;20964;-39
2023/12/04 08:35:12;;;;;;;33.20;30.57;;;;;;;;;;5033768;28;20478;-40
2023/12/04 08:37:40;;;;;;;32.40;30.00;;;;;;;;;;5040754;28;20435;-40
2023/12/04 08:40:10;;;;;;;36.40;33.27;;;;;;;;;;5036354;28;20804;-40
2023/12/04 08:42:38;;;;;;;36.03;32.80;;;;;;;;;;5053561;28;20439;-40
2023/12/04 08:45:08;;;;;;;35.67;32.50;;;;;;;;;;5049606;28;20471;-39
2023/12/04 08:47:36;;;;;;;34.37;31.27;;;;;;;;;;5033136;28;20503;-41
2023/12/04 08:50:04;;;;;;;36.47;33.23;;;;;;;;;;5043476;28;20471;-40
2023/12/04 08:52:32;;;;;;;36.47;33.40;;;;;;;;;;5045023;28;20435;-39
2023/12/04 08:55:00;;;;;;;37.60;34.03;;;;;;;;;;5043437;28;20486;-40
2023/12/04 08:57:30;;;;;;;34.80;31.80;;;;;;;;;;5053072;28;20838;-40
2023/12/04 08:59:58;;;;;;;32.87;30.27;;;;;;;;;;5052500;28;20465;-40
2023/12/04 09:02:26;;;;;;;35.93;32.60;;;;;;;;;;5052661;28;20432;-41
2023/12/04 09:04:54;;;;;;;37.73;34.40;;;;;;;;;;5044708;28;20455;-44
2023/12/04 09:07:22;;;;;;;35.80;32.60;;;;;;;;;;5052219;28;20454;-46
2023/12/04 09:09:52;;;;;;;36.73;33.40;;;;;;;;;;5044609;28;20466;-41
2023/12/04 09:12:21;;;;;;;36.10;33.00;;;;;;;;;;5053011;28;20443;-40
2023/12/04 09:14:50;;;;;;;37.63;34.33;;;;;;;;;;5052714;28;20890;-40
2023/12/04 09:17:18;;;;;;;37.67;34.40;;;;;;;;;;5048262;28;20440;-43
2023/12/04 09:19:48;;;;;;;36.43;33.23;;;;;;;;;;5047919;28;20527;-42
2023/12/04 09:22:16;;;;;;;38.60;35.13;;;;;;;;;;5040089;28;20440;-47
2023/12/04 09:24:48;;;;;;;36.13;32.70;;;;;;;;;;5049089;28;20521;-40
2023/12/04 09:27:16;;;;;;;38.93;35.10;;;;;;;;;;5049098;28;20458;-43
2023/12/04 09:29:44;;;;;;;33.33;30.53;;;;;;;;;;5039623;28;20431;-42
2023/12/04 09:32:13;;;;;;;34.93;32.23;;;;;;;;;;5044035;28;20450;-40
2023/12/04 09:34:41;;;;;;;36.40;32.80;;;;;;;;;;5043449;28;20439;-41
2023/12/04 09:37:08;;;;;;;36.37;33.23;;;;;;;;;;5051520;28;20489;-46
2023/12/04 09:39:39;;;;;;;33.60;31.10;;;;;;;;;;5051664;28;20467;-42
2023/12/04 09:42:08;;;;;;;35.73;32.63;;;;;;;;;;5035307;28;20880;-41
2023/12/04 09:44:37;;;;;;;36.23;33.13;;;;;;;;;;5051483;28;20806;-40
2023/12/04 09:47:05;;;;;;;37.90;34.30;;;;;;;;;;5043809;28;20438;-43
2023/12/04 09:49:34;;;;;;;35.97;32.17;;;;;;;;;;5052136;28;20923;-41
2023/12/04 09:52:03;;;;;;;38.23;34.67;;;;;;;;;;5035725;28;20440;-40
2023/12/04 09:54:31;;;;;;;35.33;32.23;;;;;;;;;;5052047;28;20463;-42
2023/12/04 09:56:59;;;;;;;34.93;32.13;;;;;;;;;;5050773;28;20436;-41
2023/12/04 09:59:29;;;;;;;35.47;32.37;;;;;;;;;;5036221;28;20439;-45
2023/12/04 10:01:57;;;;;;;37.30;33.47;;;;;;;;;;5052028;28;20430;-39
2023/12/04 10:04:25;;;;;;;35.53;32.33;;;;;;;;;;5051325;28;20447;-39
2023/12/04 10:06:54;;;;;;;34.00;31.57;;;;;;;;;;5051699;28;20431;-40
2023/12/04 10:09:23;;;;;;;34.87;32.00;;;;;;;;;;5044131;28;20531;-40
2023/12/04 10:11:51;;;;;;;35.20;32.10;;;;;;;;;;5032011;28;20516;-40
2023/12/04 10:14:19;;;;;;;36.70;33.70;;;;;;;;;;5048024;28;20548;-41
2023/12/04 10:16:47;;;;;;;35.70;32.80;;;;;;;;;;5039895;28;20455;-45
2023/12/04 10:19:16;;;;;;;36.10;32.97;;;;;;;;;;5048172;28;20966;-40
2023/12/04 10:21:44;;;;;;;40.00;36.60;;;;;;;;;;5038553;28;20815;-41
2023/12/04 10:24:14;;;;;;;36.30;33.40;;;;;;;;;;5039692;28;20462;-40
2023/12/04 10:26:51;;;;;;;36.17;33.23;;;;;;;;;;5038774;28;20486;-39
2023/12/04 10:29:18;;;;;;;36.80;33.63;;;;;;;;;;5031740;28;20471;-40
2023/12/04 10:31:47;;;;;;;36.77;33.77;;;;;;;;;;5046938;28;20459;-40
2023/12/04 10:34:15;;;;;;;35.57;32.73;;;;;;;;;;5050725;28;20979;-45
2023/12/04 10:36:45;;;;;;;36.37;32.80;;;;;;;;;;5051372;28;20509;-39
2023/12/04 10:39:15;;;;;;;36.60;33.43;;;;;;;;;;5051633;28;20486;-40
2023/12/04 10:41:44;;;;;;;33.63;30.83;;;;;;;;;;5035221;28;20476;-40
2023/12/04 10:44:17;;;;;;;36.37;33.30;;;;;;;;;;5050509;28;20466;-39
2023/12/04 10:46:47;;;;;;;33.10;30.50;;;;;;;;;;5050854;28;20463;-39
2023/12/04 10:49:15;;;;;;;35.80;32.70;;;;;;;;;;5042962;28;20832;-40
2023/12/04 10:51:44;;;;;;;35.77;33.00;;;;;;;;;;5042089;28;20455;-40
2023/12/04 10:54:12;;;;;;;36.07;33.20;;;;;;;;;;5050461;28;20435;-40
2023/12/04 10:56:43;;;;;;;34.77;31.93;;;;;;;;;;5050783;28;20455;-40
2023/12/04 10:59:11;;;;;;;35.80;32.60;;;;;;;;;;5051242;28;20478;-40
2023/12/04 11:01:41;;;;;;;36.83;33.43;;;;;;;;;;5050934;28;20497;-39
2023/12/04 11:04:11;;;;;;;34.83;31.80;;;;;;;;;;5050711;28;20938;-40
2023/12/04 11:06:40;;;;;;;35.73;32.53;;;;;;;;;;5045797;28;20973;-40
2023/12/04 11:09:09;;;;;;;37.53;34.00;;;;;;;;;;5040964;28;20793;-40
2023/12/04 11:11:37;;;;;;;37.77;33.97;;;;;;;;;;5050325;28;20487;-43
2023/12/04 11:14:08;;;;;;;36.00;33.10;;;;;;;;;;5042266;28;20498;-40
2023/12/04 11:16:39;;;;;;;37.13;34.20;;;;;;;;;;5045489;28;20521;-39
2023/12/04 11:19:12;;;;;;;34.90;32.10;;;;;;;;;;5046986;28;20510;-39
2023/12/04 11:21:40;;;;;;;37.23;33.83;;;;;;;;;;5030220;28;20472;-40
2023/12/04 11:24:08;;;;;;;36.40;33.43;;;;;;;;;;5038132;28;20463;-40
2023/12/04 11:26:36;;;;;;;38.20;34.97;;;;;;;;;;5030826;28;20462;-39
2023/12/04 11:29:04;;;;;;;37.87;34.67;;;;;;;;;;5040244;28;20470;-39
2023/12/04 11:31:33;;;;;;;37.77;34.77;;;;;;;;;;5050691;28;20460;-41
2023/12/04 11:34:02;;;;;;;35.70;32.70;;;;;;;;;;5041648;28;20440;-41
2023/12/04 11:36:30;;;;;;;36.53;33.20;;;;;;;;;;5050190;28;20455;-39
2023/12/04 11:38:58;;;;;;;37.07;33.70;;;;;;;;;;5050485;28;20458;-40
2023/12/04 11:41:26;;;;;;;37.73;34.53;;;;;;;;;;5041825;28;20732;-40
2023/12/04 11:43:56;;;;;;;37.93;34.17;;;;;;;;;;5049349;28;20431;-40
2023/12/04 11:46:25;;;;;;;37.30;33.77;;;;;;;;;;5046966;28;20551;-39
2023/12/04 11:48:56;;;;;;;37.90;34.50;;;;;;;;;;5037807;28;20957;-39
2023/12/04 11:51:46;;;;;;;38.23;34.93;;;;;;;;;;5030160;28;20466;-39
2023/12/04 11:54:15;;;;;;;37.97;34.83;;;;;;;;;;5040102;28;20601;-39
2023/12/04 11:56:49;;;;;;;37.57;34.50;;;;;;;;;;5050221;28;20971;-41
2023/12/04 11:59:17;;;;;;;38.40;35.37;;;;;;;;;;5050764;28;20427;-41
2023/12/04 12:01:45;;;;;;;36.80;33.50;;;;;;;;;;5049580;28;20910;-40
2023/12/04 12:04:17;;;;;;;36.77;33.77;;;;;;;;;;5031967;28;20437;-39
2023/12/04 12:06:45;;;;;;;37.57;34.53;;;;;;;;;;5044885;28;20451;-40
2023/12/04 12:09:12;;;;;;;38.73;35.23;;;;;;;;;;5033720;28;20436;-40
2023/12/04 12:11:40;;;;;;;38.57;35.33;;;;;;;;;;5041359;28;21162;-41
2023/12/04 12:14:08;;;;;;;38.97;35.63;;;;;;;;;;5033450;28;20467;-39
2023/12/04 12:16:36;;;;;;;38.83;35.33;;;;;;;;;;5045333;28;20491;-39
2023/12/04 12:19:03;;;;;;;39.77;36.17;;;;;;;;;;5029963;28;20432;-40
2023/12/04 12:21:33;;;;;;;39.97;36.47;;;;;;;;;;5029678;28;20559;-39
2023/12/04 12:24:01;;;;;;;39.70;35.90;;;;;;;;;;5046910;28;20514;-42
2023/12/04 12:26:29;;;;;;;38.17;34.83;;;;;;;;;;5046607;28;20506;-42
2023/12/04 12:28:57;;;;;;;38.93;35.50;;;;;;;;;;5046465;28;20515;-40
2023/12/04 12:31:24;;;;;;;44.20;40.17;;;;;;;;;;5051770;28;20455;-45
2023/12/04 12:33:52;;;;;;;38.23;34.93;;;;;;;;;;5053732;28;20846;-40
2023/12/04 12:36:21;;;;;;;41.80;38.00;;;;;;;;;;5053660;28;20454;-41
2023/12/04 12:38:50;;;;;;;39.03;35.33;;;;;;;;;;5053293;28;20448;-40
2023/12/04 12:41:18;;;;;;;40.67;37.17;;;;;;;;;;5045011;28;20506;-42
2023/12/04 12:43:47;;;;;;;40.40;36.60;;;;;;;;;;5044981;28;20494;-41
2023/12/04 12:46:14;;;;;;;40.60;36.73;;;;;;;;;;5052697;28;20969;-40
2023/12/04 12:48:43;;;;;;;41.43;37.47;;;;;;;;;;5039152;28;20436;-45
2023/12/04 12:51:11;;;;;;;37.90;34.57;;;;;;;;;;5049547;28;20459;-42
2023/12/04 12:53:39;;;;;;;41.47;37.87;;;;;;;;;;5047494;28;20462;-40
2023/12/04 12:56:12;;;;;;;42.67;38.70;;;;;;;;;;5049523;28;20494;-45
2023/12/04 12:58:39;;;;;;;41.30;37.40;;;;;;;;;;5039548;28;20812;-40
2023/12/04 13:01:10;;;;;;;40.47;36.63;;;;;;;;;;5048495;28;20469;-41
2023/12/04 13:03:38;;;;;;;42.50;38.37;;;;;;;;;;5052815;28;20861;-40
2023/12/04 13:06:07;;;;;;;41.37;37.67;;;;;;;;;;5052414;28;20459;-39
2023/12/04 13:08:34;;;;;;;42.50;38.30;;;;;;;;;;5052661;28;20455;-39
2023/12/04 13:11:02;;;;;;;44.70;40.50;;;;;;;;;;5044247;28;20464;-42
2023/12/04 13:13:32;;;;;;;42.43;38.70;;;;;;;;;;5044177;28;20442;-41
2023/12/04 13:15:59;;;;;;;39.80;35.97;;;;;;;;;;5052591;28;20455;-41
2023/12/04 13:18:27;;;;;;;40.10;36.63;;;;;;;;;;5052749;28;20434;-39
2023/12/04 13:20:56;;;;;;;43.33;39.40;;;;;;;;;;5042052;28;20468;-41
2023/12/04 13:23:24;;;;;;;41.37;37.47;;;;;;;;;;5048894;28;20517;-40
2023/12/04 13:25:52;;;;;;;40.77;37.23;;;;;;;;;;5047323;28;20451;-40
2023/12/04 13:28:20;;;;;;;40.07;36.50;;;;;;;;;;5051710;28;20435;-40
2023/12/04 13:31:00;;;;;;;44.50;39.80;;;;;;;;;;5045028;28;20463;-38
2023/12/04 13:33:27;;;;;;;43.43;38.87;;;;;;;;;;5053335;28;20918;-39
2023/12/04 13:35:55;;;;;;;42.10;38.17;;;;;;;;;;5053647;28;20450;-42
2023/12/04 13:38:24;;;;;;;42.07;38.20;;;;;;;;;;5045216;28;20501;-42
2023/12/04 13:41:18;;;;;;;41.07;37.60;;;;;;;;;;5045308;28;20459;-41
2023/12/04 13:43:51;;;;;;;42.30;37.90;;;;;;;;;;5032976;28;20481;-40
2023/12/04 13:46:20;;;;;;;38.97;35.40;;;;;;;;;;5044964;28;20474;-39
2023/12/04 13:48:48;;;;;;;40.87;37.40;;;;;;;;;;5053498;28;20438;-40
2023/12/04 13:51:16;;;;;;;42.30;38.10;;;;;;;;;;5052780;28;20463;-38
2023/12/04 13:53:46;;;;;;;42.40;38.17;;;;;;;;;;5053147;28;20802;-39
2023/12/04 13:56:27;;;;;;;39.93;36.00;;;;;;;;;;5053034;28;20954;-40
2023/12/04 13:58:56;;;;;;;40.33;36.70;;;;;;;;;;5046292;28;20428;-40
2023/12/04 14:01:28;;;;;;;39.57;35.77;;;;;;;;;;5051686;28;20459;-40
2023/12/04 14:04:01;;;;;;;41.57;37.33;;;;;;;;;;5052948;28;20458;-39
2023/12/04 14:06:29;;;;;;;39.53;35.83;;;;;;;;;;5052822;28;20966;-42
2023/12/04 14:08:57;;;;;;;41.40;37.23;;;;;;;;;;5053283;28;20438;-38
2023/12/04 14:11:25;;;;;;;40.97;36.70;;;;;;;;;;5052473;28;20459;-41
2023/12/04 14:13:53;;;;;;;42.40;38.17;;;;;;;;;;5052598;28;20439;-39
2023/12/04 14:16:20;;;;;;;39.83;36.10;;;;;;;;;;5052370;28;20538;-43
2023/12/04 14:18:49;;;;;;;40.80;36.87;;;;;;;;;;5052838;28;20442;-41
2023/12/04 14:21:17;;;;;;;40.53;36.37;;;;;;;;;;5039881;28;20514;-39
2023/12/04 14:23:44;;;;;;;43.03;39.10;;;;;;;;;;5052297;28;20830;-41